Time;durP1;ratioP1;P1;durP2;ratioP2;P2;SDS_P1;SDS_P2;PMS_P1;PMS_P2;Temp;Humidity;BMP_temperature;BMP_pressure;BME280_temperature;BME280_humidity;BME280_pressure;Samples;Min_cycle;Max_cycle;Signal;HPM_P1;HPM_P2
2022/08/31 00:06:00;;;;;;;5.03;2.10;;;;;;;-145.18;100.00;46674.06;5071193;28;20446;-70
2022/08/31 00:08:27;;;;;;;7.90;2.40;;;;;;;-145.18;100.00;46674.06;5073835;28;20029;-70
2022/08/31 00:10:54;;;;;;;3.93;1.80;;;;;;;-145.18;100.00;46679.94;5074275;28;20032;-70
2022/08/31 00:13:21;;;;;;;4.00;2.07;;;;;;;-145.18;100.00;46676.03;5073555;28;20781;-70
2022/08/31 00:15:46;;;;;;;4.77;2.17;;;;;;;-145.18;100.00;46676.03;5056620;28;20128;-70
2022/08/31 00:18:13;;;;;;;4.03;2.00;;;;;;;-145.18;100.00;46674.06;5073484;28;20107;-70
2022/08/31 00:20:39;;;;;;;3.63;1.80;;;;;;;-145.18;100.00;46676.03;5073986;28;20024;-70
2022/08/31 00:23:07;;;;;;;4.07;1.60;;;;;;;-145.18;100.00;46672.13;5073985;28;20101;-71
2022/08/31 00:25:35;;;;;;;3.90;1.97;;;;;;;-145.18;100.00;46672.13;5073444;28;20032;-70
2022/08/31 00:28:01;;;;;;;5.33;1.97;;;;;;;-145.18;100.00;46672.13;5073531;28;20048;-71
2022/08/31 00:30:27;;;;;;;6.53;2.10;;;;;;;-145.18;100.00;46672.13;5073562;28;20028;-71
2022/08/31 00:32:52;;;;;;;3.00;2.10;;;;;;;-145.18;100.00;46670.16;5074019;28;20116;-71
2022/08/31 00:35:18;;;;;;;5.00;2.20;;;;;;;-145.18;100.00;46664.31;5073321;28;20942;-71
2022/08/31 00:37:43;;;;;;;7.87;2.67;;;;;;;-145.18;100.00;46674.06;5073836;28;20037;-71
2022/08/31 00:40:09;;;;;;;6.80;2.10;;;;;;;-145.18;100.00;46676.03;5073267;28;20036;-70
2022/08/31 00:42:34;;;;;;;2.60;1.83;;;;;;;-145.18;100.00;46668.22;5073481;28;20033;-70
2022/08/31 00:45:00;;;;;;;5.37;3.03;;;;;;;-145.18;100.00;46672.13;5073273;28;20134;-70
2022/08/31 00:47:25;;;;;;;4.10;2.20;;;;;;;-145.18;100.00;46668.22;5073114;28;20033;-70
2022/08/31 00:49:51;;;;;;;5.73;2.20;;;;;;;-145.18;100.00;46672.13;5073091;28;20032;-70
2022/08/31 00:52:23;;;;;;;4.10;2.37;;;;;;;-145.18;100.00;46664.31;5073196;28;20036;-70
2022/08/31 00:54:58;;;;;;;3.47;2.40;;;;;;;-145.18;100.00;46666.25;5073390;28;20036;-70
2022/08/31 00:57:28;;;;;;;3.97;2.27;;;;;;;-145.18;100.00;46666.25;5072964;28;20032;-70
2022/08/31 00:59:54;;;;;;;2.80;1.90;;;;;;;-145.18;100.00;46670.16;5073197;28;20473;-70
2022/08/31 01:02:20;;;;;;;7.43;2.10;;;;;;;-145.18;100.00;46664.31;5072622;28;20037;-70
2022/08/31 01:04:45;;;;;;;4.50;2.37;;;;;;;-145.18;100.00;46670.16;5073234;28;20033;-70
2022/08/31 01:07:11;;;;;;;8.83;2.27;;;;;;;-145.18;100.00;46668.22;5072741;28;20097;-69
2022/08/31 01:09:39;;;;;;;4.23;2.33;;;;;;;-145.18;100.00;46668.22;5072594;28;20063;-70
2022/08/31 01:12:07;;;;;;;5.87;2.30;;;;;;;-145.18;100.00;46668.22;5072967;28;20036;-70
2022/08/31 01:14:35;;;;;;;4.43;3.13;;;;;;;-145.18;100.00;46666.25;5072680;28;20115;-70
2022/08/31 01:17:00;;;;;;;2.57;1.70;;;;;;;-145.18;100.00;46668.22;5072679;28;20489;-70
2022/08/31 01:19:38;;;;;;;5.87;2.13;;;;;;;-145.18;100.00;46664.31;5071789;28;20066;-69
2022/08/31 01:22:09;;;;;;;5.50;2.70;;;;;;;-145.18;100.00;46662.34;5072823;28;20392;-70
2022/08/31 01:24:38;;;;;;;8.03;2.53;;;;;;;-145.18;100.00;46666.25;5072672;28;20052;-70
2022/08/31 01:27:06;;;;;;;4.17;2.00;;;;;;;-145.18;100.00;46666.25;5072774;28;20044;-70
2022/08/31 01:29:32;;;;;;;5.67;2.30;;;;;;;-145.18;100.00;46666.25;5070922;28;20037;-70
2022/08/31 01:31:58;;;;;;;3.17;2.33;;;;;;;-145.18;100.00;46670.16;5072709;28;20040;-70
2022/08/31 01:34:23;;;;;;;4.57;2.40;;;;;;;-145.18;100.00;46670.16;5071946;28;20036;-70
2022/08/31 01:36:50;;;;;;;5.00;2.40;;;;;;;-145.18;100.00;46662.34;5072811;28;20499;-70
2022/08/31 01:39:16;;;;;;;4.23;2.17;;;;;;;-145.18;100.00;46664.31;5072132;28;20515;-70
2022/08/31 01:41:42;;;;;;;4.17;2.47;;;;;;;-145.18;100.00;46660.41;5072205;28;20063;-70
2022/08/31 01:44:10;;;;;;;4.57;1.90;;;;;;;-145.18;100.00;46660.41;5072209;28;20060;-69
2022/08/31 01:46:36;;;;;;;3.13;2.23;;;;;;;-145.18;100.00;46656.50;5071976;28;20806;-70
2022/08/31 01:49:01;;;;;;;3.80;2.10;;;;;;;-145.18;100.00;46662.34;5072235;28;20036;-69
2022/08/31 01:51:27;;;;;;;3.50;2.07;;;;;;;-145.18;100.00;46656.50;5072169;28;20064;-69
2022/08/31 01:53:53;;;;;;;13.53;2.57;;;;;;;-145.18;100.00;46664.31;5072235;28;20032;-69
2022/08/31 01:56:24;;;;;;;5.10;2.07;;;;;;;-145.18;100.00;46660.41;5072214;28;20036;-70
2022/08/31 01:58:50;;;;;;;4.10;2.10;;;;;;;-145.18;100.00;46660.41;5072077;28;20029;-69
2022/08/31 02:03:45;;;;;;;4.27;2.47;;;;;;;-145.18;100.00;46658.44;5063703;22;20041;-70
2022/08/31 02:06:12;;;;;;;4.47;2.50;;;;;;;-145.18;100.00;46656.50;5048980;28;20455;-70
2022/08/31 02:08:38;;;;;;;4.50;2.57;;;;;;;-145.18;100.00;46656.50;5050982;28;20029;-70
2022/08/31 02:11:07;;;;;;;5.67;3.23;;;;;;;-145.18;100.00;46660.41;5052328;28;20029;-70
2022/08/31 02:13:33;;;;;;;4.80;2.57;;;;;;;-145.18;100.00;46654.53;5051879;28;20025;-70
2022/08/31 02:15:59;;;;;;;5.80;2.33;;;;;;;-145.18;100.00;46660.41;5051790;28;20492;-70
2022/08/31 02:18:24;;;;;;;6.73;2.30;;;;;;;-145.18;100.00;46662.34;5051826;28;20072;-71
2022/08/31 02:20:50;;;;;;;4.93;2.60;;;;;;;-145.18;100.00;46660.41;5052114;28;20033;-71
2022/08/31 02:23:15;;;;;;;5.17;2.33;;;;;;;-145.18;100.00;46656.50;5051730;28;20040;-71
2022/08/31 02:25:40;;;;;;;4.37;2.30;;;;;;;-145.18;100.00;46654.53;5051243;28;20116;-70
2022/08/31 02:28:06;;;;;;;4.67;2.30;;;;;;;-145.18;100.00;46652.59;5051781;28;20132;-71
2022/08/31 02:30:32;;;;;;;3.17;2.07;;;;;;;-145.18;100.00;46656.50;5051721;28;20033;-70
2022/08/31 02:32:57;;;;;;;4.70;2.50;;;;;;;-145.18;100.00;46652.59;5051342;28;20041;-70
2022/08/31 02:35:23;;;;;;;15.77;2.37;;;;;;;-145.18;100.00;46656.50;5052002;28;20389;-70
2022/08/31 02:37:48;;;;;;;6.00;2.43;;;;;;;-145.18;100.00;46654.53;5051300;28;20029;-71
2022/08/31 02:40:14;;;;;;;5.13;2.17;;;;;;;-145.18;100.00;46656.50;5051630;28;20044;-71
2022/08/31 02:42:39;;;;;;;5.90;2.40;;;;;;;-145.18;100.00;46660.41;5050992;28;20059;-71
2022/08/31 02:45:05;;;;;;;3.53;2.60;;;;;;;-145.18;100.00;46658.44;5051880;28;20443;-70
2022/08/31 02:47:32;;;;;;;4.10;2.00;;;;;;;-145.18;100.00;46660.41;5050882;28;20635;-70
2022/08/31 02:50:01;;;;;;;5.27;2.30;;;;;;;-145.18;100.00;46654.53;5051299;28;20052;-70
2022/08/31 02:52:26;;;;;;;4.07;2.47;;;;;;;-145.18;100.00;46654.53;5051204;28;20384;-71
2022/08/31 02:54:52;;;;;;;5.70;1.90;;;;;;;-145.18;100.00;46658.44;5051576;28;20039;-70
2022/08/31 02:57:17;;;;;;;6.30;2.50;;;;;;;-145.18;100.00;46656.50;5051157;28;20033;-70
2022/08/31 02:59:42;;;;;;;4.87;2.17;;;;;;;-145.18;100.00;46654.53;5051301;28;20045;-70
2022/08/31 03:02:08;;;;;;;6.43;2.60;;;;;;;-145.18;100.00;46656.50;5051088;28;20037;-70
2022/08/31 03:04:33;;;;;;;3.13;2.13;;;;;;;-145.18;100.00;46650.63;5051241;28;20029;-70
2022/08/31 03:06:59;;;;;;;5.50;2.30;;;;;;;-145.18;100.00;46652.59;5050641;28;20075;-70
2022/08/31 03:09:24;;;;;;;6.30;2.10;;;;;;;-145.18;100.00;46650.63;5050320;28;20041;-70
2022/08/31 03:11:49;;;;;;;5.13;2.43;;;;;;;-145.18;100.00;46652.59;5030763;28;20111;-70
2022/08/31 03:14:15;;;;;;;3.70;2.10;;;;;;;-145.18;100.00;46650.63;5043131;28;20028;-70
2022/08/31 03:16:41;;;;;;;5.63;2.17;;;;;;;-145.18;100.00;46650.63;5050737;28;20504;-70
2022/08/31 03:19:07;;;;;;;8.70;2.47;;;;;;;-145.18;100.00;46654.53;5050873;28;20650;-70
2022/08/31 03:21:33;;;;;;;7.70;2.60;;;;;;;-145.18;100.00;46652.59;5050712;28;20099;-70
2022/08/31 03:23:58;;;;;;;3.67;2.10;;;;;;;-145.18;100.00;46654.53;5050437;28;20477;-71
2022/08/31 03:26:24;;;;;;;4.13;2.30;;;;;;;-145.18;100.00;46654.53;5050933;28;20389;-70
2022/08/31 03:28:49;;;;;;;2.50;2.10;;;;;;;-145.18;100.00;46650.63;5050751;28;20067;-70
2022/08/31 03:31:14;;;;;;;5.67;2.00;;;;;;;-145.18;100.00;46654.53;5051044;28;20086;-70
2022/08/31 03:33:40;;;;;;;8.00;2.27;;;;;;;-145.18;100.00;46652.59;5050162;28;20495;-70
2022/08/31 03:36:06;;;;;;;4.13;2.40;;;;;;;-145.18;100.00;46652.59;5050752;28;20041;-71
2022/08/31 03:38:32;;;;;;;4.30;2.13;;;;;;;-145.18;100.00;46658.44;5050598;28;20033;-70
2022/08/31 03:40:58;;;;;;;3.20;1.90;;;;;;;-145.18;100.00;46654.53;5050240;28;20033;-70
2022/08/31 03:43:24;;;;;;;6.57;2.10;;;;;;;-145.18;100.00;46656.50;5050409;28;20029;-70
2022/08/31 03:45:49;;;;;;;3.43;1.97;;;;;;;-145.18;100.00;46656.50;5050582;28;20083;-71
2022/08/31 03:48:15;;;;;;;3.00;1.90;;;;;;;-145.18;100.00;46658.44;5050704;28;20043;-71
2022/08/31 03:50:42;;;;;;;2.20;1.70;;;;;;;-145.18;100.00;46662.34;5050400;28;20393;-71
2022/08/31 03:53:08;;;;;;;3.27;2.00;;;;;;;-145.18;100.00;46654.53;5050565;28;20392;-70
2022/08/31 03:55:37;;;;;;;5.97;2.53;;;;;;;-145.18;100.00;46654.53;5050550;28;20037;-70
2022/08/31 03:58:03;;;;;;;6.97;2.70;;;;;;;-145.18;100.00;46656.50;5050268;28;20033;-70
2022/08/31 06:49:26;;;;;;;3.43;1.10;;;;;;;-145.18;100.00;46556.88;5030735;28;20578;-69
2022/08/31 06:51:51;;;;;;;5.43;1.10;;;;;;;-145.18;100.00;46549.06;5030492;28;20125;-69
2022/08/31 06:54:18;;;;;;;7.73;1.10;;;;;;;-145.18;100.00;46552.97;5030727;28;20390;-69
2022/08/31 06:56:44;;;;;;;4.37;1.37;;;;;;;-145.18;100.00;46556.88;5031296;28;20099;-69
2022/08/31 06:59:10;;;;;;;2.53;1.20;;;;;;;-145.18;100.00;46562.72;5030851;28;20029;-69
2022/08/31 07:01:35;;;;;;;2.50;1.10;;;;;;;-145.18;100.00;46547.09;5031499;28;20041;-69
2022/08/31 07:04:07;;;;;;;8.23;1.40;;;;;;;-145.18;100.00;46570.53;5030845;28;20052;-69
2022/08/31 07:44:43;;;;;;;4.17;1.40;;;;;;;-145.18;100.00;46644.78;5042722;28;20048;-69
2022/08/31 07:47:12;;;;;;;4.87;1.10;;;;;;;-145.18;100.00;46635.00;5048233;28;20576;-69
2022/08/31 07:49:46;;;;;;;4.63;1.40;;;;;;;-145.18;100.00;46636.94;5049117;28;20060;-69
2022/08/31 07:52:15;;;;;;;6.00;1.30;;;;;;;-145.18;100.00;46656.50;5049538;28;20049;-69
2022/08/31 07:54:43;;;;;;;2.83;1.10;;;;;;;-145.18;100.00;46644.78;5049649;28;20049;-70
2022/08/31 07:57:09;;;;;;;3.70;0.87;;;;;;;-145.18;100.00;46652.59;5049768;28;20057;-69
2022/08/31 07:59:38;;;;;;;3.77;1.00;;;;;;;-145.18;100.00;46703.38;5049298;28;21991;-69
2022/08/31 08:02:03;;;;;;;3.10;1.23;;;;;;;-145.18;100.00;46715.09;5048717;28;20102;-69
2022/08/31 08:04:30;;;;;;;3.00;1.10;;;;;;;-145.18;100.00;46756.09;5049234;28;20049;-70
2022/08/31 08:06:59;;;;;;;4.43;1.47;;;;;;;-145.18;100.00;46943.63;5049826;28;20916;-69
2022/08/31 08:09:26;;;;;;;3.47;1.13;;;;;;;-145.18;100.00;46928.00;5048112;28;20045;-69
2022/08/31 08:11:56;;;;;;;5.90;1.90;;;;;;;-145.18;100.00;47082.34;5049474;28;20068;-69
2022/08/31 08:14:26;;;;;;;6.33;1.10;;;;;;;-145.18;100.00;47144.84;5049122;28;20135;-69
2022/08/31 08:16:53;;;;;;;3.27;1.20;;;;;;;-145.18;100.00;47221.03;5023747;28;20486;-69
2022/08/31 08:19:19;;;;;;;3.63;1.40;;;;;;;-145.18;100.00;47244.50;5029474;28;20125;-69
2022/08/31 08:21:45;;;;;;;3.87;1.17;;;;;;;-145.18;100.00;47250.34;5029511;28;20111;-69
2022/08/31 08:24:11;;;;;;;6.00;1.20;;;;;;;-145.18;100.00;47240.56;5029209;28;20069;-69
2022/08/31 08:26:40;;;;;;;7.37;1.30;;;;;;;-145.18;100.00;47234.72;5029817;28;20053;-71
2022/08/31 08:29:06;;;;;;;3.00;1.20;;;;;;;-145.18;100.00;47240.56;5032901;28;20045;-69
2022/08/31 08:31:32;;;;;;;2.90;1.37;;;;;;;-145.18;100.00;47258.16;5033227;28;20049;-69
2022/08/31 08:33:57;;;;;;;2.67;1.30;;;;;;;-145.18;100.00;47238.63;5041843;28;20060;-69
2022/08/31 08:36:23;;;;;;;4.53;1.47;;;;;;;-145.18;100.00;47242.53;5053387;28;20433;-69
2022/08/31 08:38:52;;;;;;;7.87;1.40;;;;;;;-145.18;100.00;47234.72;5052836;28;20065;-69
2022/08/31 08:41:21;;;;;;;4.80;1.20;;;;;;;-145.18;100.00;47219.09;5051900;28;20041;-69
2022/08/31 08:43:52;;;;;;;8.23;1.40;;;;;;;-145.18;100.00;47209.31;5052825;28;20049;-69
2022/08/31 08:46:26;;;;;;;11.23;1.53;;;;;;;-145.18;100.00;47164.38;5047583;28;20497;-70
2022/08/31 08:48:54;;;;;;;3.40;1.40;;;;;;;-145.18;100.00;47187.84;5052481;28;20056;-69
2022/08/31 08:51:24;;;;;;;5.57;1.60;;;;;;;-145.18;100.00;47191.75;5052849;28;20053;-70
2022/08/31 08:53:58;;;;;;;6.53;1.37;;;;;;;-145.18;100.00;47189.78;5052282;28;20501;-70
2022/08/31 08:56:26;;;;;;;6.07;1.70;;;;;;;-145.18;100.00;47172.19;5052821;28;20044;-69
2022/08/31 08:58:51;;;;;;;2.93;1.40;;;;;;;-145.18;100.00;47166.34;5052713;28;20049;-70
2022/08/31 09:01:27;;;;;;;9.60;1.50;;;;;;;-145.18;100.00;47162.44;5052833;28;20413;-70
2022/08/31 09:04:15;;;;;;;4.77;1.70;;;;;;;-145.18;100.00;47140.94;5052323;28;20052;-69
2022/08/31 09:07:10;;;;;;;6.53;2.27;;;;;;;-145.18;100.00;47133.13;5052416;28;20513;-70
2022/08/31 09:09:48;;;;;;;6.97;1.80;;;;;;;-145.18;100.00;47148.75;5052257;28;20095;-70
2022/08/31 09:12:24;;;;;;;4.40;2.03;;;;;;;-145.18;100.00;47105.78;5052607;28;20132;-70
2022/08/31 09:15:31;;;;;;;9.03;2.63;;;;;;;-145.18;100.00;47133.13;5052217;28;20503;-70
2022/08/31 09:18:10;;;;;;;4.23;1.70;;;;;;;-145.18;100.00;47113.59;5051882;28;21385;-70
2022/08/31 09:20:36;;;;;;;6.83;1.67;;;;;;;-145.18;100.00;47105.78;5052780;28;20041;-70
2022/08/31 09:23:06;;;;;;;5.70;1.47;;;;;;;-145.18;100.00;47088.19;5050305;28;20060;-70
2022/08/31 09:25:50;;;;;;;3.37;1.60;;;;;;;-145.18;100.00;47097.97;5052065;28;20417;-70
2022/08/31 09:28:17;;;;;;;2.83;1.70;;;;;;;-145.18;100.00;47086.25;5051949;28;20112;-70
2022/08/31 09:30:43;;;;;;;3.27;1.80;;;;;;;-145.18;100.00;47080.38;5051815;28;20088;-70
2022/08/31 09:33:19;;;;;;;7.13;1.70;;;;;;;-145.18;100.00;47094.06;5052109;28;20053;-70
2022/08/31 09:35:44;;;;;;;;;;;;;;;-145.18;100.00;47078.44;5051972;28;20623;-70
2022/08/31 09:38:24;;;;;;;4.35;1.70;;;;;;;-145.18;100.00;47056.94;5051234;28;20003;-70
2022/08/31 09:40:51;;;;;;;9.33;1.70;;;;;;;-145.18;100.00;47070.63;5047549;28;20045;-70
2022/08/31 09:43:24;;;;;;;5.47;1.80;;;;;;;-145.18;100.00;47053.03;5049785;28;20501;-70
2022/08/31 09:46:10;;;;;;;7.33;1.70;;;;;;;-145.18;100.00;47047.19;5050475;28;20044;-70
2022/08/31 09:48:57;;;;;;;6.50;2.50;;;;;;;-145.18;100.00;47037.41;5046406;28;20053;-70
2022/08/31 09:51:27;;;;;;;7.17;1.90;;;;;;;-145.18;100.00;47055.00;5050080;28;20045;-70
2022/08/31 09:57:09;;;;;;;7.63;1.80;;;;;;;-145.18;100.00;47064.75;5050531;28;20060;-70
2022/08/31 09:59:42;;;;;;;2.53;1.52;;;;;;;-145.18;100.00;47078.44;5037306;28;20067;-70
2022/08/31 10:02:25;;;;;;;2.23;1.33;;;;;;;-145.18;100.00;47084.28;5051736;28;20076;-69
2022/08/31 10:04:59;;;;;;;4.57;1.90;;;;;;;-145.18;100.00;47078.44;5050964;28;20045;-70
2022/08/31 10:07:42;;;;;;;7.70;1.75;;;;;;;-145.18;100.00;47070.63;5051502;28;20151;-70
2022/08/31 10:10:16;;;;;;;2.47;1.40;;;;;;;-145.18;100.00;47066.72;5050733;28;20071;-70
2022/08/31 10:12:48;;;;;;;3.93;2.00;;;;;;;-145.18;100.00;47072.56;5051393;28;20409;-70
